Portada
METAR-TAF:

METAR-TAF

Aeroports :

Dumaguete, Filipines

latitud: 09-20-01N, longitud: 123-18-02E, altitud: 5 m

Observació

L'informe es va fer fa 1 hora i 23 minuts, a les 12:00 UTC
Vent calma
Temperatura 26°C
Humitat 84%
Pressió 1007 hPa
Visibilitat 10 km o més
Escasses núvols a una alçada de 1500 ft

METAR: RPVD 251200Z 00000KT 9999 FEW015 26/23 Q1007 RMK A2974

Hora: 21:23 (13:23 UTC)

Pronòstic

L'informe es va fer fa 2 hores i 23 minuts, a les 11:00 UTC
Pronòstic vàlid del 25 a les 12 UTC al 26 a les 12 UTC
Vent 6 kt del Est
Visibilitat 10 km o més
Escasses núvols a una alçada de 1500 ft
Núvols disperses a una alçada de 22000 ft
Temporalment
l' 25 a les 12 UTC al 25 a les 18 UTC
Vent 4 kt del Oest
Escasses núvols a una alçada de 1500 ft
Núvols disperses a una alçada de 7000 ft

TAF: RPVD 251100Z 2512/2612 09006KT 9999 FEW015 SCT220 TEMPO 2512/2518 27004KT FEW015 SCT070

Observacions i pronòstics meteorològics de més de 4000 aeroports (METAR i TAF).

Les estacions disponibles són els punts grocs i vermells al mapa.

Posi el ratolí al punt desitjat per veure el nom de l'estació.

Feu clic per veure les observacions i els pronòstics meteorològics.

Per canviar el mapa: feu clic els botons verds amb una creu de color negre per apropar; al botó verd amb un guió per allunyar la imatge; o en les fletxes verdes per a mapes adjacents.


METAR-TAF: